Aviation Digital Data Service (ADDS)

Output produced by METARs form (1236 UTC 26 February 2017)
found at http://aviationweather.gov/adds/metars/
 
KAVL 261139Z 2612/2712 34010G18KT P6SM SKC 
     FM261900 35011KT P6SM SKC 
     FM270300 18005KT P6SM FEW200 
     FM270900 16003KT P6SM BKN110